パラオ の空港の天気 - METARとTAF

パラオ国際空港 ( PTRO / ROR ) - パラオ アイライ州
飛行場実況気象(Metar)
観測時間04/25 22:50 PWT (04/25 13:50 UTC)
風向・風速静穏 0m/s
視程10km以上
天気現象
全天の4割程度の雲 雲底高度 490m
全天の8割程度の雲 雲底高度 8840m
気温27℃
湿度84%
気圧1010hPa
METARPTRO 251350Z 00000KT 15SM SCT016 BKN290 27/24 A2981
過去の天気等 Google飛行場航空写真 Wunderground天気予報

過去48時間のMETAR

飛行場予報(TAF)
発表時間: 4/25 20:36 PWT (4/25 11:36 UTC)
予報対象時間: 25日21時 PWT ~ 26日21時 PWT
風向・風速静穏
視程10km以上
天気現象周辺でしゅう雨
全天の4割程度の雲 雲底高度 490m
全天の8割程度の雲 雲底高度 3,350m
PTRO 251136Z 2512/2612 00000KT P6SM VCSH SCT016 BKN110